Time;durP1;ratioP1;P1;durP2;ratioP2;P2;SDS_P1;SDS_P2;PMS_P1;PMS_P2;Temp;Humidity;BMP_temperature;BMP_pressure;BME280_temperature;BME280_humidity;BME280_pressure;Samples;Min_cycle;Max_cycle;Signal;HPM_P1;HPM_P2
2024/01/02 00:00:05;;;;;;;15.70;2.22;;;;;;;;;;4802057;29;20074;-71
2024/01/02 00:02:32;;;;;;;9.80;2.15;;;;;;;;;;4810435;29;20158;-71
2024/01/02 00:04:58;;;;;;;17.92;2.90;;;;;;;;;;4792352;29;20515;-71
2024/01/02 00:07:25;;;;;;;16.90;2.95;;;;;;;;;;4810666;29;20077;-71
2024/01/02 00:09:51;;;;;;;14.85;3.05;;;;;;;;;;4793707;29;20496;-72
2024/01/02 00:12:17;;;;;;;13.75;2.53;;;;;;;;;;4795380;29;20050;-71
2024/01/02 00:14:44;;;;;;;16.10;2.78;;;;;;;;;;4807464;29;20043;-71
2024/01/02 00:17:10;;;;;;;16.45;2.47;;;;;;;;;;4799485;29;20046;-73
2024/01/02 00:19:37;;;;;;;10.75;2.60;;;;;;;;;;4809399;29;20068;-72
2024/01/02 00:22:03;;;;;;;11.60;2.00;;;;;;;;;;4806507;29;20077;-72
2024/01/02 00:24:30;;;;;;;8.43;2.50;;;;;;;;;;4811898;29;20446;-72
2024/01/02 00:26:56;;;;;;;11.40;2.10;;;;;;;;;;4800934;29;20150;-71
2024/01/02 00:29:22;;;;;;;11.25;2.15;;;;;;;;;;4790142;29;20082;-73
2024/01/02 00:31:49;;;;;;;14.68;2.60;;;;;;;;;;4800568;29;20751;-73
2024/01/02 00:34:16;;;;;;;11.13;2.17;;;;;;;;;;4801917;29;20477;-74
2024/01/02 00:36:42;;;;;;;11.77;2.10;;;;;;;;;;4801855;29;20336;-73
2024/01/02 00:39:09;;;;;;;15.55;2.08;;;;;;;;;;4812886;29;20142;-73
2024/01/02 00:41:35;;;;;;;11.70;2.10;;;;;;;;;;4792503;29;20642;-72
2024/01/02 00:44:02;;;;;;;13.70;2.47;;;;;;;;;;4801802;29;20061;-72
2024/01/02 00:46:29;;;;;;;10.18;1.98;;;;;;;;;;4801582;29;20058;-72
2024/01/02 00:48:56;;;;;;;8.27;2.00;;;;;;;;;;4807787;29;20140;-72
2024/01/02 00:51:22;;;;;;;9.95;1.80;;;;;;;;;;4799592;29;20065;-72
2024/01/02 00:53:48;;;;;;;8.25;1.80;;;;;;;;;;4809923;29;20169;-73
2024/01/02 00:56:15;;;;;;;15.23;2.53;;;;;;;;;;4806377;29;20074;-72
2024/01/02 00:58:41;;;;;;;10.70;1.65;;;;;;;;;;4799537;29;20081;-74
2024/01/02 01:01:08;;;;;;;6.65;1.60;;;;;;;;;;4805818;29;20110;-72
2024/01/02 01:03:34;;;;;;;11.20;2.67;;;;;;;;;;4805188;29;20141;-73
2024/01/02 01:06:03;;;;;;;10.75;2.17;;;;;;;;;;4811855;29;20046;-72
2024/01/02 01:08:29;;;;;;;10.32;1.73;;;;;;;;;;4810319;29;20507;-73
2024/01/02 01:10:56;;;;;;;11.25;2.53;;;;;;;;;;4806284;29;20411;-73
2024/01/02 01:13:22;;;;;;;7.40;1.98;;;;;;;;;;4786346;29;20066;-75
2024/01/02 01:15:49;;;;;;;11.90;2.00;;;;;;;;;;4796320;29;20086;-73
2024/01/02 01:18:15;;;;;;;9.32;1.90;;;;;;;;;;4793986;29;20055;-72
2024/01/02 01:20:41;;;;;;;9.77;1.90;;;;;;;;;;4807334;29;20062;-74
2024/01/02 01:23:08;;;;;;;6.53;1.60;;;;;;;;;;4790639;29;20050;-73
2024/01/02 01:25:35;;;;;;;9.57;1.90;;;;;;;;;;4792762;29;20420;-73
2024/01/02 01:28:03;;;;;;;5.38;1.42;;;;;;;;;;4791493;29;20069;-73
2024/01/02 01:30:30;;;;;;;11.98;1.67;;;;;;;;;;4794473;29;20069;-72
2024/01/02 01:32:56;;;;;;;6.90;1.75;;;;;;;;;;4795973;29;20059;-72
2024/01/02 01:35:22;;;;;;;7.47;1.25;;;;;;;;;;4792938;29;20079;-72
2024/01/02 01:37:49;;;;;;;5.05;1.63;;;;;;;;;;4789379;29;20063;-73
2024/01/02 01:40:15;;;;;;;8.30;1.20;;;;;;;;;;4783921;29;20047;-72
2024/01/02 01:42:42;;;;;;;7.07;1.85;;;;;;;;;;4788338;29;20547;-74
2024/01/02 01:45:08;;;;;;;7.00;1.67;;;;;;;;;;4793272;29;20508;-73
2024/01/02 01:47:34;;;;;;;8.63;1.92;;;;;;;;;;4786048;29;20051;-72
2024/01/02 01:50:01;;;;;;;10.80;1.50;;;;;;;;;;4789332;29;20055;-73
2024/01/02 01:52:32;;;;;;;7.72;1.40;;;;;;;;;;4786255;29;20055;-72
2024/01/02 01:54:59;;;;;;;4.10;1.23;;;;;;;;;;4794142;29;20540;-73
2024/01/02 01:57:25;;;;;;;4.63;1.33;;;;;;;;;;4800523;29;20051;-72
2024/01/02 01:59:52;;;;;;;4.85;1.60;;;;;;;;;;4789101;29;20046;-73
2024/01/02 02:02:18;;;;;;;3.47;1.10;;;;;;;;;;4789277;29;20050;-73
2024/01/02 02:04:45;;;;;;;4.35;1.10;;;;;;;;;;4796628;29;20054;-73
2024/01/02 02:07:12;;;;;;;4.82;1.02;;;;;;;;;;4795861;29;20090;-75
2024/01/02 02:09:38;;;;;;;5.20;1.20;;;;;;;;;;4789409;29;20058;-75
2024/01/02 02:12:05;;;;;;;3.75;0.82;;;;;;;;;;4799303;29;20464;-75
2024/01/02 02:14:32;;;;;;;3.50;1.10;;;;;;;;;;4802290;29;20197;-75
2024/01/02 02:16:58;;;;;;;3.42;0.90;;;;;;;;;;4798149;29;20086;-73
2024/01/02 02:19:25;;;;;;;3.83;1.17;;;;;;;;;;4782049;29;20054;-73
2024/01/02 02:21:51;;;;;;;4.13;1.10;;;;;;;;;;4786799;29;20146;-73
2024/01/02 02:24:18;;;;;;;2.05;0.75;;;;;;;;;;4795940;29;20063;-74
2024/01/02 02:26:44;;;;;;;5.78;1.25;;;;;;;;;;4795067;29;20065;-73
2024/01/02 02:29:11;;;;;;;2.85;0.80;;;;;;;;;;4810768;29;20134;-71
2024/01/02 02:31:37;;;;;;;5.00;0.93;;;;;;;;;;4787597;29;20065;-74
2024/01/02 02:34:03;;;;;;;2.63;0.63;;;;;;;;;;4789149;29;20054;-72
2024/01/02 02:36:30;;;;;;;2.40;0.73;;;;;;;;;;4791027;29;20058;-72
2024/01/02 02:38:56;;;;;;;2.28;0.68;;;;;;;;;;4800530;29;20058;-73
2024/01/02 02:41:23;;;;;;;4.25;1.45;;;;;;;;;;4793335;29;20058;-72
2024/01/02 02:43:49;;;;;;;1.55;0.60;;;;;;;;;;4792001;29;20084;-71
2024/01/02 02:46:16;;;;;;;4.50;0.60;;;;;;;;;;4795672;29;20078;-72
2024/01/02 02:48:43;;;;;;;3.50;0.90;;;;;;;;;;4794765;29;20540;-73
2024/01/02 02:51:09;;;;;;;2.72;0.75;;;;;;;;;;4786388;29;20054;-72
2024/01/02 02:53:36;;;;;;;4.15;0.90;;;;;;;;;;4798552;29;20078;-71
2024/01/02 02:56:03;;;;;;;3.78;0.80;;;;;;;;;;4792489;29;20789;-73
2024/01/02 02:58:30;;;;;;;2.47;0.60;;;;;;;;;;4798627;29;20054;-75
2024/01/02 03:00:57;;;;;;;2.15;0.60;;;;;;;;;;4791031;29;20142;-75
2024/01/02 03:03:24;;;;;;;5.78;0.60;;;;;;;;;;4807549;29;20147;-74
2024/01/02 03:05:50;;;;;;;2.05;0.50;;;;;;;;;;4789683;29;20084;-74
2024/01/02 03:08:17;;;;;;;1.63;0.68;;;;;;;;;;4792741;29;20086;-72
2024/01/02 03:10:43;;;;;;;1.55;0.57;;;;;;;;;;4797393;29;20077;-74
2024/01/02 03:13:10;;;;;;;1.48;0.60;;;;;;;;;;4792793;29;20111;-72
2024/01/02 03:15:36;;;;;;;0.77;0.40;;;;;;;;;;4793413;29;20062;-73
2024/01/02 03:18:03;;;;;;;1.92;0.55;;;;;;;;;;4791788;29;20064;-73
2024/01/02 03:20:30;;;;;;;1.63;0.40;;;;;;;;;;4794691;29;20874;-72
2024/01/02 03:22:56;;;;;;;1.20;0.60;;;;;;;;;;4797863;29;20046;-72
2024/01/02 03:25:23;;;;;;;4.32;0.70;;;;;;;;;;4791972;29;20058;-74
2024/01/02 03:27:49;;;;;;;1.65;0.57;;;;;;;;;;4794614;29;20141;-73
2024/01/02 03:30:16;;;;;;;1.25;0.40;;;;;;;;;;4786781;29;20058;-73
2024/01/02 03:32:42;;;;;;;1.60;0.55;;;;;;;;;;4792006;29;20051;-73
2024/01/02 03:35:10;;;;;;;1.10;0.60;;;;;;;;;;4795474;29;20050;-73
2024/01/02 03:37:36;;;;;;;1.08;0.40;;;;;;;;;;4790863;29;20149;-73
2024/01/02 03:40:03;;;;;;;1.30;0.50;;;;;;;;;;4810006;29;20082;-73
2024/01/02 03:42:30;;;;;;;1.20;0.30;;;;;;;;;;4785570;29;20059;-73
2024/01/02 03:44:56;;;;;;;2.17;0.50;;;;;;;;;;4792733;29;20070;-72
2024/01/02 03:47:23;;;;;;;0.98;0.55;;;;;;;;;;4783843;29;20113;-73
2024/01/02 03:49:49;;;;;;;0.75;0.40;;;;;;;;;;4809864;29;20145;-72
2024/01/02 03:52:16;;;;;;;1.45;0.40;;;;;;;;;;4810847;29;20162;-74
2024/01/02 03:54:42;;;;;;;2.13;0.75;;;;;;;;;;4790605;29;20458;-73
2024/01/02 03:57:09;;;;;;;2.65;0.65;;;;;;;;;;4793347;29;20111;-74
2024/01/02 03:59:35;;;;;;;0.75;0.40;;;;;;;;;;4786634;29;20546;-75
2024/01/02 04:02:02;;;;;;;1.45;0.40;;;;;;;;;;4796334;29;20099;-74
2024/01/02 04:04:28;;;;;;;2.25;0.50;;;;;;;;;;4794253;29;20508;-73
2024/01/02 04:06:55;;;;;;;0.50;0.50;;;;;;;;;;4791199;29;20066;-73
2024/01/02 04:09:21;;;;;;;0.93;0.50;;;;;;;;;;4797293;29;20105;-73
2024/01/02 04:11:49;;;;;;;1.00;0.40;;;;;;;;;;4785199;29;20051;-73
2024/01/02 04:14:16;;;;;;;0.95;0.40;;;;;;;;;;4796707;29;20050;-74
2024/01/02 04:16:42;;;;;;;1.35;0.40;;;;;;;;;;4786489;29;20066;-73
2024/01/02 04:19:12;;;;;;;1.27;0.85;;;;;;;;;;4811004;29;20043;-74
2024/01/02 04:21:39;;;;;;;0.30;0.30;;;;;;;;;;4796091;29;20059;-73
2024/01/02 04:24:05;;;;;;;0.30;0.30;;;;;;;;;;4792435;29;20142;-73
2024/01/02 04:26:32;;;;;;;0.30;0.30;;;;;;;;;;4795534;29;20061;-73
2024/01/02 04:28:58;;;;;;;0.90;0.52;;;;;;;;;;4802281;29;20055;-74
2024/01/02 04:31:25;;;;;;;0.30;0.30;;;;;;;;;;4790820;29;20063;-71
2024/01/02 04:33:51;;;;;;;0.30;0.30;;;;;;;;;;4796986;29;20054;-73
2024/01/02 04:36:18;;;;;;;0.20;0.20;;;;;;;;;;4775978;29;20082;-73
2024/01/02 04:38:44;;;;;;;2.08;0.40;;;;;;;;;;4794930;29;20108;-72
2024/01/02 04:41:12;;;;;;;1.48;0.30;;;;;;;;;;4794929;29;20059;-73
2024/01/02 04:43:39;;;;;;;0.32;0.32;;;;;;;;;;4800749;29;20480;-72
2024/01/02 04:46:05;;;;;;;0.68;0.30;;;;;;;;;;4781623;29;20632;-75
2024/01/02 04:48:32;;;;;;;0.43;0.22;;;;;;;;;;4782121;29;20129;-74
2024/01/02 04:50:58;;;;;;;0.20;0.20;;;;;;;;;;4784112;29;20137;-75
2024/01/02 04:53:25;;;;;;;0.30;0.30;;;;;;;;;;4798882;29;20554;-75
2024/01/02 04:55:51;;;;;;;0.20;0.20;;;;;;;;;;4792268;29;20471;-74
2024/01/02 04:58:17;;;;;;;0.30;0.30;;;;;;;;;;4783660;29;20047;-75
2024/01/02 05:00:44;;;;;;;0.20;0.20;;;;;;;;;;4785755;29;20055;-75
2024/01/02 05:03:10;;;;;;;0.30;0.30;;;;;;;;;;4785360;29;20070;-74
2024/01/02 05:05:37;;;;;;;0.77;0.40;;;;;;;;;;4791728;29;20055;-75
2024/01/02 05:08:03;;;;;;;0.55;0.32;;;;;;;;;;4792926;29;20484;-75
2024/01/02 05:10:31;;;;;;;0.40;0.40;;;;;;;;;;4794129;29;20158;-76
2024/01/02 05:12:58;;;;;;;0.40;0.40;;;;;;;;;;4813677;29;20063;-76
2024/01/02 05:15:24;;;;;;;0.28;0.28;;;;;;;;;;4782513;29;20134;-76
2024/01/02 05:17:50;;;;;;;0.50;0.50;;;;;;;;;;4796957;29;20069;-76
2024/01/02 05:20:17;;;;;;;0.70;0.50;;;;;;;;;;4806811;29;20519;-76
2024/01/02 05:22:44;;;;;;;0.45;0.45;;;;;;;;;;4799996;29;20059;-76
2024/01/02 05:25:10;;;;;;;0.40;0.40;;;;;;;;;;4796387;29;20139;-76
2024/01/02 05:27:36;;;;;;;0.88;0.60;;;;;;;;;;4784865;29;20066;-76
2024/01/02 05:30:03;;;;;;;1.77;0.50;;;;;;;;;;4798746;29;20494;-76
2024/01/02 05:32:33;;;;;;;0.68;0.63;;;;;;;;;;4792465;29;20061;-76
2024/01/02 05:34:59;;;;;;;0.77;0.65;;;;;;;;;;4807048;29;20156;-76
2024/01/02 05:37:26;;;;;;;0.50;0.50;;;;;;;;;;4800209;29;20085;-78
2024/01/02 05:39:55;;;;;;;0.60;0.60;;;;;;;;;;4792864;29;20074;-76
2024/01/02 05:42:21;;;;;;;0.63;0.60;;;;;;;;;;4800139;29;20051;-76
2024/01/02 05:44:48;;;;;;;0.68;0.68;;;;;;;;;;4802786;29;20058;-76
2024/01/02 05:47:14;;;;;;;0.70;0.70;;;;;;;;;;4796102;29;20162;-76
2024/01/02 05:49:41;;;;;;;0.77;0.60;;;;;;;;;;4797370;29;20204;-76
2024/01/02 05:52:07;;;;;;;0.80;0.70;;;;;;;;;;4807493;29;20055;-76
2024/01/02 05:54:33;;;;;;;0.88;0.88;;;;;;;;;;4792208;29;20062;-78
2024/01/02 05:57:00;;;;;;;0.85;0.85;;;;;;;;;;4797812;29;20054;-76
2024/01/02 05:59:26;;;;;;;1.05;0.95;;;;;;;;;;4808793;29;20065;-76
2024/01/02 06:01:53;;;;;;;1.75;1.10;;;;;;;;;;4792852;29;20112;-76
2024/01/02 06:04:19;;;;;;;2.53;1.10;;;;;;;;;;4791232;29;20055;-76
2024/01/02 06:06:46;;;;;;;0.98;0.98;;;;;;;;;;4800832;29;20462;-77
2024/01/02 06:09:12;;;;;;;1.23;1.13;;;;;;;;;;4784314;29;20507;-76
2024/01/02 06:11:38;;;;;;;1.48;1.20;;;;;;;;;;4798808;29;20090;-76
2024/01/02 06:14:05;;;;;;;1.38;1.10;;;;;;;;;;4787899;29;20798;-76
2024/01/02 06:16:32;;;;;;;1.30;1.10;;;;;;;;;;4798307;29;20059;-77
2024/01/02 06:18:58;;;;;;;1.52;1.42;;;;;;;;;;4798800;29;20047;-76
2024/01/02 06:21:25;;;;;;;1.27;1.17;;;;;;;;;;4803240;29;20084;-76
2024/01/02 06:23:51;;;;;;;1.20;1.10;;;;;;;;;;4813329;29;20530;-75
2024/01/02 06:26:22;;;;;;;1.48;1.38;;;;;;;;;;4790362;29;20511;-76
2024/01/02 06:28:48;;;;;;;1.42;1.25;;;;;;;;;;4794636;29;20480;-76
2024/01/02 06:31:15;;;;;;;1.70;1.50;;;;;;;;;;4805196;29;20146;-76
2024/01/02 06:33:44;;;;;;;1.80;1.60;;;;;;;;;;4797521;29;20063;-75
2024/01/02 06:36:11;;;;;;;2.60;1.67;;;;;;;;;;4797983;29;20054;-75
2024/01/02 06:38:38;;;;;;;3.50;1.73;;;;;;;;;;4793136;29;20055;-75
2024/01/02 06:41:05;;;;;;;3.15;1.90;;;;;;;;;;4788031;29;20059;-75
2024/01/02 06:43:32;;;;;;;2.55;1.95;;;;;;;;;;4790483;29;20051;-75
2024/01/02 06:45:59;;;;;;;2.45;2.00;;;;;;;;;;4788288;29;20047;-75
2024/01/02 06:48:26;;;;;;;3.40;2.50;;;;;;;;;;4791589;29;20141;-74
2024/01/02 06:50:52;;;;;;;4.20;2.53;;;;;;;;;;4799768;29;20057;-75
2024/01/02 06:53:19;;;;;;;4.75;3.00;;;;;;;;;;4784980;29;20057;-75
2024/01/02 06:55:45;;;;;;;4.75;3.13;;;;;;;;;;4778800;29;20508;-75
2024/01/02 06:58:12;;;;;;;7.40;4.50;;;;;;;;;;4793525;29;20062;-75
2024/01/02 07:00:38;;;;;;;8.73;3.85;;;;;;;;;;4793666;29;20071;-74
2024/01/02 07:03:05;;;;;;;6.10;3.88;;;;;;;;;;4791076;29;20047;-75
2024/01/02 07:05:31;;;;;;;9.32;4.50;;;;;;;;;;4809336;29;20058;-75
2024/01/02 07:07:57;;;;;;;11.48;4.82;;;;;;;;;;4779244;29;20054;-75
2024/01/02 07:10:24;;;;;;;7.72;4.70;;;;;;;;;;4806697;29;20062;-75
2024/01/02 07:12:51;;;;;;;12.50;4.78;;;;;;;;;;4793262;29;20100;-75
2024/01/02 07:15:17;;;;;;;9.75;4.75;;;;;;;;;;4793973;29;20620;-73
2024/01/02 07:17:43;;;;;;;11.57;5.43;;;;;;;;;;4796709;29;20062;-73
2024/01/02 07:20:12;;;;;;;8.90;5.07;;;;;;;;;;4789879;29;20055;-73
2024/01/02 07:22:38;;;;;;;9.93;5.40;;;;;;;;;;4786486;29;20059;-73
2024/01/02 07:25:05;;;;;;;15.35;5.53;;;;;;;;;;4787485;29;20046;-73
2024/01/02 07:27:31;;;;;;;8.93;4.22;;;;;;;;;;4796681;29;20058;-73
2024/01/02 07:29:58;;;;;;;9.95;5.07;;;;;;;;;;4791320;29;20474;-72
2024/01/02 07:32:24;;;;;;;14.70;5.00;;;;;;;;;;4796775;29;20591;-73
2024/01/02 07:34:51;;;;;;;11.80;4.72;;;;;;;;;;4795889;29;20135;-73
2024/01/02 07:37:17;;;;;;;8.55;4.60;;;;;;;;;;4786354;29;20051;-73
2024/01/02 07:39:43;;;;;;;14.30;4.55;;;;;;;;;;4795204;29;20085;-73
2024/01/02 07:42:10;;;;;;;12.18;4.70;;;;;;;;;;4792608;29;20068;-73
2024/01/02 07:44:37;;;;;;;11.05;4.28;;;;;;;;;;4796238;29;20111;-72
2024/01/02 07:47:03;;;;;;;10.27;4.50;;;;;;;;;;4789669;29;20349;-72
2024/01/02 07:49:30;;;;;;;12.30;4.13;;;;;;;;;;4791739;29;20107;-72
2024/01/02 07:51:56;;;;;;;12.52;4.50;;;;;;;;;;4793661;29;20065;-73
2024/01/02 07:54:23;;;;;;;14.25;4.25;;;;;;;;;;4789294;29;20143;-73
2024/01/02 07:56:49;;;;;;;8.57;3.95;;;;;;;;;;4797383;29;20116;-73
2024/01/02 07:59:19;;;;;;;12.05;3.75;;;;;;;;;;4788894;29;20065;-72
2024/01/02 08:01:47;;;;;;;9.80;3.10;;;;;;;;;;4805571;29;20076;-74
2024/01/02 08:04:14;;;;;;;9.17;2.90;;;;;;;;;;4807183;29;20057;-72
2024/01/02 08:06:41;;;;;;;14.18;3.45;;;;;;;;;;4788894;29;20062;-73
2024/01/02 08:09:07;;;;;;;13.43;4.03;;;;;;;;;;4797025;29;20050;-74
2024/01/02 08:11:33;;;;;;;15.20;3.53;;;;;;;;;;4792070;29;20073;-74
2024/01/02 08:14:00;;;;;;;15.65;4.05;;;;;;;;;;4789335;29;20058;-73
2024/01/02 08:16:26;;;;;;;17.52;3.22;;;;;;;;;;4801049;29;20116;-72
2024/01/02 08:18:53;;;;;;;17.92;4.38;;;;;;;;;;4798786;29;20047;-73
2024/01/02 08:21:19;;;;;;;15.75;3.78;;;;;;;;;;4813410;29;20066;-73
2024/01/02 08:23:47;;;;;;;15.70;4.13;;;;;;;;;;4794559;29;20472;-73
2024/01/02 08:26:14;;;;;;;19.48;4.07;;;;;;;;;;4801603;29;20055;-72
2024/01/02 08:28:41;;;;;;;13.75;3.33;;;;;;;;;;4792710;29;20489;-73
2024/01/02 08:31:07;;;;;;;18.95;3.63;;;;;;;;;;4807642;29;20062;-73
2024/01/02 08:33:34;;;;;;;19.08;3.72;;;;;;;;;;4796101;29;20051;-73
2024/01/02 08:36:00;;;;;;;23.92;3.78;;;;;;;;;;4795717;29;20110;-72
2024/01/02 08:38:27;;;;;;;19.98;3.75;;;;;;;;;;4803832;29;20103;-73
2024/01/02 08:40:53;;;;;;;23.48;3.63;;;;;;;;;;4792837;29;20066;-72
2024/01/02 08:43:19;;;;;;;15.80;3.72;;;;;;;;;;4808868;29;20051;-72
2024/01/02 08:45:46;;;;;;;26.13;3.65;;;;;;;;;;4783956;29;20216;-75
2024/01/02 08:48:13;;;;;;;26.48;5.07;;;;;;;;;;4794794;29;20054;-76
2024/01/02 08:50:42;;;;;;;;;;;;;;;;;;4791508;29;20073;-72
2024/01/02 08:53:11;;;;;;;17.23;3.50;;;;;;;;;;4791777;29;19933;-72
2024/01/02 08:55:38;;;;;;;23.17;3.90;;;;;;;;;;4798899;29;20047;-73
2024/01/02 08:58:05;;;;;;;18.70;3.22;;;;;;;;;;4792528;29;20058;-73
2024/01/02 09:00:32;;;;;;;26.92;4.18;;;;;;;;;;4813617;29;20458;-74
2024/01/02 09:03:01;;;;;;;18.58;4.07;;;;;;;;;;4793063;29;20078;-74
2024/01/02 09:05:28;;;;;;;15.88;3.47;;;;;;;;;;4795004;29;20683;-73
2024/01/02 09:07:55;;;;;;;20.83;3.95;;;;;;;;;;4802255;29;20154;-75
2024/01/02 09:10:21;;;;;;;22.33;3.65;;;;;;;;;;4796039;29;20120;-78
2024/01/02 09:12:48;;;;;;;17.77;3.47;;;;;;;;;;4813102;29;20055;-78
2024/01/02 09:15:15;;;;;;;22.98;4.53;;;;;;;;;;4789070;29;20134;-77
2024/01/02 09:17:41;;;;;;;19.80;3.58;;;;;;;;;;4799857;29;20130;-75
2024/01/02 09:20:10;;;;;;;19.40;4.40;;;;;;;;;;4802531;29;20062;-75
2024/01/02 09:22:37;;;;;;;19.92;3.70;;;;;;;;;;4795333;29;20059;-75
2024/01/02 09:25:04;;;;;;;18.90;3.60;;;;;;;;;;4800517;29;20179;-75
2024/01/02 09:27:31;;;;;;;12.75;3.53;;;;;;;;;;4787690;29;20058;-75
2024/01/02 09:29:58;;;;;;;16.23;3.93;;;;;;;;;;4784649;29;20047;-75
2024/01/02 09:32:26;;;;;;;14.18;3.88;;;;;;;;;;4808624;29;20378;-72
2024/01/02 09:34:52;;;;;;;14.77;3.75;;;;;;;;;;4791617;29;20177;-75
2024/01/02 09:37:19;;;;;;;23.63;4.45;;;;;;;;;;4791621;29;20051;-73
2024/01/02 09:39:45;;;;;;;10.57;3.28;;;;;;;;;;4787651;29;20142;-72
2024/01/02 09:42:47;;;;;;;18.00;3.65;;;;;;;;;;4796020;29;20475;-72
2024/01/02 09:45:33;;;;;;;20.45;4.00;;;;;;;;;;4730908;30;20083;-72
2024/01/02 09:48:09;;;;;;;11.10;3.05;;;;;;;;;;4742748;30;20135;-71
2024/01/02 09:50:45;;;;;;;15.35;3.80;;;;;;;;;;4738477;30;20148;-72
2024/01/02 09:53:17;;;;;;;13.27;3.95;;;;;;;;;;4742172;30;20056;-73
2024/01/02 09:55:59;;;;;;;16.05;4.93;;;;;;;;;;4739908;30;20129;-72
2024/01/02 09:58:31;;;;;;;14.88;5.53;;;;;;;;;;4728422;30;20807;-73
2024/01/02 10:01:14;;;;;;;16.45;5.45;;;;;;;;;;4742373;30;20056;-72
2024/01/02 10:03:47;;;;;;;13.02;5.30;;;;;;;;;;4736792;30;20067;-73
2024/01/02 10:06:32;;;;;;;20.65;7.55;;;;;;;;;;4743894;30;20055;-73
2024/01/02 10:09:02;;;;;;;21.63;7.10;;;;;;;;;;4736544;30;20151;-72
2024/01/02 10:11:52;;;;;;;18.33;6.95;;;;;;;;;;4724823;30;20170;-71
2024/01/02 10:14:27;;;;;;;16.42;7.63;;;;;;;;;;4735064;30;20639;-74
2024/01/02 10:17:13;;;;;;;24.80;7.68;;;;;;;;;;4742058;30;20058;-74
2024/01/02 10:19:41;;;;;;;15.25;7.13;;;;;;;;;;4775798;29;20065;-74
2024/01/02 10:22:24;;;;;;;11.18;7.07;;;;;;;;;;4794872;29;20081;-74
2024/01/02 10:24:56;;;;;;;11.45;6.78;;;;;;;;;;4794598;29;20546;-73
2024/01/02 10:27:30;;;;;;;17.17;6.57;;;;;;;;;;4803230;29;20055;-75
2024/01/02 10:30:06;;;;;;;15.88;6.97;;;;;;;;;;4810138;29;20094;-73
2024/01/02 10:32:42;;;;;;;14.75;6.80;;;;;;;;;;4793136;29;20059;-73
2024/01/02 10:35:17;;;;;;;11.45;5.57;;;;;;;;;;4809009;29;20055;-72
2024/01/02 10:38:03;;;;;;;11.45;5.90;;;;;;;;;;4790214;29;20051;-72
2024/01/02 10:40:30;;;;;;;11.23;5.65;;;;;;;;;;4785279;29;20683;-73
2024/01/02 10:43:27;;;;;;;12.65;5.63;;;;;;;;;;4793638;29;20050;-73
2024/01/02 10:46:12;;;;;;;10.00;5.18;;;;;;;;;;4789653;29;20490;-76
2024/01/02 10:48:54;;;;;;;8.60;4.93;;;;;;;;;;4788280;29;20131;-75
2024/01/02 10:51:40;;;;;;;10.68;4.63;;;;;;;;;;4811614;29;20051;-75
2024/01/02 10:54:15;;;;;;;6.90;4.18;;;;;;;;;;4797223;29;20082;-75
2024/01/02 10:56:44;;;;;;;5.82;3.67;;;;;;;;;;4782363;29;20386;-75
2024/01/02 10:59:11;;;;;;;4.50;3.00;;;;;;;;;;4794881;29;20082;-75
2024/01/02 11:01:38;;;;;;;5.93;3.10;;;;;;;;;;4794255;29;20061;-75
2024/01/02 11:04:26;;;;;;;5.10;2.67;;;;;;;;;;4793090;29;20134;-75
2024/01/02 11:06:59;;;;;;;3.75;2.70;;;;;;;;;;4792868;29;20047;-75
2024/01/02 11:09:48;;;;;;;3.33;2.20;;;;;;;;;;4797996;29;20077;-74
2024/01/02 11:12:16;;;;;;;2.47;2.00;;;;;;;;;;4796146;29;20055;-75
2024/01/02 11:14:43;;;;;;;2.70;1.88;;;;;;;;;;4788441;29;20062;-74
2024/01/02 11:17:12;;;;;;;3.17;2.15;;;;;;;;;;4800653;29;20055;-75
2024/01/02 11:19:56;;;;;;;3.58;2.00;;;;;;;;;;4797697;29;20119;-74
2024/01/02 11:22:27;;;;;;;2.35;1.63;;;;;;;;;;4796218;29;20567;-75
2024/01/02 11:24:56;;;;;;;1.80;1.60;;;;;;;;;;4795180;29;20819;-75
2024/01/02 11:27:23;;;;;;;1.63;1.40;;;;;;;;;;4802374;29;20046;-75
2024/01/02 11:29:53;;;;;;;2.38;1.60;;;;;;;;;;4813441;29;20058;-75
2024/01/02 11:32:25;;;;;;;1.77;1.58;;;;;;;;;;4802063;29;20484;-75
2024/01/02 11:34:59;;;;;;;2.53;1.27;;;;;;;;;;4796814;29;20051;-75
2024/01/02 11:37:37;;;;;;;1.50;1.20;;;;;;;;;;4791528;29;20541;-75
2024/01/02 11:40:27;;;;;;;2.08;1.20;;;;;;;;;;4790301;29;20554;-75
2024/01/02 11:42:59;;;;;;;1.20;1.10;;;;;;;;;;4793742;29;20524;-74
2024/01/02 11:45:31;;;;;;;2.15;1.05;;;;;;;;;;4807918;29;20268;-75
2024/01/02 11:47:57;;;;;;;1.20;0.90;;;;;;;;;;4795052;29;20063;-75
2024/01/02 11:50:31;;;;;;;1.27;0.90;;;;;;;;;;4796154;29;20082;-74
2024/01/02 11:53:03;;;;;;;1.55;0.90;;;;;;;;;;4814299;29;20157;-75
2024/01/02 11:55:49;;;;;;;1.42;0.93;;;;;;;;;;4793510;29;20080;-72
2024/01/02 11:58:24;;;;;;;1.00;0.90;;;;;;;;;;4797680;29;20055;-73
2024/01/02 12:00:56;;;;;;;0.90;0.70;;;;;;;;;;4789979;29;20103;-71
2024/01/02 12:03:23;;;;;;;1.77;1.00;;;;;;;;;;4792720;29;20057;-73
2024/01/02 12:05:50;;;;;;;1.65;0.90;;;;;;;;;;4794035;29;20054;-72
2024/01/02 12:08:18;;;;;;;0.68;0.68;;;;;;;;;;4799096;29;20058;-72
2024/01/02 12:10:48;;;;;;;2.75;1.35;;;;;;;;;;4798152;29;20061;-72
2024/01/02 12:13:14;;;;;;;0.68;0.68;;;;;;;;;;4804315;29;20051;-72
2024/01/02 12:15:50;;;;;;;0.75;0.60;;;;;;;;;;4789718;29;20471;-73
2024/01/02 12:18:19;;;;;;;0.60;0.60;;;;;;;;;;4771197;29;20167;-72
2024/01/02 12:21:07;;;;;;;0.82;0.80;;;;;;;;;;4796759;29;20102;-72
2024/01/02 12:23:35;;;;;;;0.90;0.90;;;;;;;;;;4806350;29;20400;-72
2024/01/02 12:26:02;;;;;;;1.50;1.35;;;;;;;;;;4796992;29;20374;-72
2024/01/02 12:28:31;;;;;;;1.27;1.20;;;;;;;;;;4783364;29;20055;-72
2024/01/02 12:31:08;;;;;;;3.75;1.40;;;;;;;;;;4778756;29;20106;-71
2024/01/02 12:33:45;;;;;;;4.20;1.27;;;;;;;;;;4779639;29;20529;-73
2024/01/02 12:36:32;;;;;;;2.15;1.25;;;;;;;;;;4786067;29;20062;-72
2024/01/02 12:39:05;;;;;;;0.85;0.85;;;;;;;;;;4796958;29;20058;-70
2024/01/02 12:41:41;;;;;;;2.42;0.90;;;;;;;;;;4796782;29;20625;-71
2024/01/02 12:44:08;;;;;;;1.30;0.80;;;;;;;;;;4792727;29;20058;-73
2024/01/02 12:46:53;;;;;;;0.80;0.80;;;;;;;;;;4793567;29;20070;-74
2024/01/02 12:49:23;;;;;;;0.88;0.88;;;;;;;;;;4808491;29;20107;-73
2024/01/02 12:51:54;;;;;;;1.48;0.95;;;;;;;;;;4796208;29;20058;-73
2024/01/02 12:54:23;;;;;;;0.95;0.95;;;;;;;;;;4789801;29;20055;-73
2024/01/02 12:56:55;;;;;;;1.13;0.68;;;;;;;;;;4790883;29;20059;-72
2024/01/02 12:59:26;;;;;;;0.63;0.63;;;;;;;;;;4783543;29;20043;-72
2024/01/02 13:01:53;;;;;;;0.70;0.70;;;;;;;;;;4794041;29;20051;-73
2024/01/02 13:04:20;;;;;;;0.60;0.60;;;;;;;;;;4798660;29;20050;-75
2024/01/02 13:06:46;;;;;;;0.60;0.60;;;;;;;;;;4797092;29;20726;-74
2024/01/02 13:09:15;;;;;;;1.40;0.90;;;;;;;;;;4795014;29;20537;-73
2024/01/02 13:11:41;;;;;;;0.50;0.50;;;;;;;;;;4793757;29;20047;-73
2024/01/02 13:14:09;;;;;;;1.13;0.70;;;;;;;;;;4790473;29;20538;-73
2024/01/02 13:16:37;;;;;;;0.43;0.43;;;;;;;;;;4797269;29;20059;-74
2024/01/02 13:19:13;;;;;;;0.68;0.60;;;;;;;;;;4783197;29;20514;-73
2024/01/02 13:21:40;;;;;;;0.70;0.70;;;;;;;;;;4783267;29;20055;-73
2024/01/02 13:24:08;;;;;;;1.38;0.57;;;;;;;;;;4791027;29;20062;-72
2024/01/02 13:26:53;;;;;;;0.63;0.60;;;;;;;;;;4782947;29;20059;-74
2024/01/02 13:29:20;;;;;;;0.70;0.70;;;;;;;;;;4789258;29;20059;-73
2024/01/02 13:31:55;;;;;;;0.82;0.70;;;;;;;;;;4803904;29;20087;-73
2024/01/02 13:34:25;;;;;;;0.73;0.70;;;;;;;;;;4785733;29;20076;-72
2024/01/02 13:36:53;;;;;;;0.40;0.30;;;;;;;;;;4792012;29;20061;-72
2024/01/02 13:39:32;;;;;;;1.45;0.55;;;;;;;;;;4797709;29;20054;-71
2024/01/02 13:42:02;;;;;;;1.48;0.50;;;;;;;;;;4786141;29;20049;-70
2024/01/02 13:44:29;;;;;;;1.10;0.50;;;;;;;;;;4782566;29;20082;-73
2024/01/02 13:46:56;;;;;;;0.40;0.40;;;;;;;;;;4782671;29;20074;-72
2024/01/02 13:49:42;;;;;;;0.82;0.60;;;;;;;;;;4794205;29;20460;-72
2024/01/02 13:52:08;;;;;;;0.47;0.47;;;;;;;;;;4786570;29;20142;-72
2024/01/02 13:54:40;;;;;;;0.50;0.50;;;;;;;;;;4785582;29;20500;-71
2024/01/02 13:57:06;;;;;;;0.93;0.50;;;;;;;;;;4795192;29;20054;-70
2024/01/02 13:59:33;;;;;;;0.65;0.40;;;;;;;;;;4792587;29;20134;-72
2024/01/02 14:02:03;;;;;;;2.50;0.50;;;;;;;;;;4812122;29;20063;-71
2024/01/02 14:04:30;;;;;;;0.50;0.50;;;;;;;;;;4792467;29;20077;-72
2024/01/02 14:07:02;;;;;;;1.10;0.75;;;;;;;;;;4785349;29;20059;-71
2024/01/02 14:09:28;;;;;;;0.60;0.60;;;;;;;;;;4781162;29;20055;-71
2024/01/02 14:11:59;;;;;;;2.15;0.50;;;;;;;;;;4790202;29;20066;-73
2024/01/02 14:14:38;;;;;;;0.63;0.55;;;;;;;;;;4799282;29;20062;-73
2024/01/02 14:17:14;;;;;;;0.50;0.50;;;;;;;;;;4806696;29;20083;-69
2024/01/02 14:19:45;;;;;;;1.02;0.70;;;;;;;;;;4793185;29;20055;-71
2024/01/02 14:22:20;;;;;;;3.25;1.45;;;;;;;;;;4804665;29;20059;-71
2024/01/02 14:25:05;;;;;;;0.57;0.57;;;;;;;;;;4792713;29;20054;-74
2024/01/02 14:27:39;;;;;;;1.48;0.70;;;;;;;;;;4804130;29;20457;-73
2024/01/02 14:30:14;;;;;;;0.63;0.63;;;;;;;;;;4797770;29;20148;-73
2024/01/02 14:33:01;;;;;;;0.88;0.77;;;;;;;;;;4796004;29;20642;-76
2024/01/02 14:35:33;;;;;;;1.65;0.95;;;;;;;;;;4796199;29;20340;-72
2024/01/02 14:38:10;;;;;;;2.53;0.90;;;;;;;;;;4792453;29;20050;-76
2024/01/02 14:40:55;;;;;;;1.05;0.90;;;;;;;;;;4805797;29;20546;-74
2024/01/02 14:43:21;;;;;;;1.50;1.00;;;;;;;;;;4798924;29;20050;-75
2024/01/02 14:45:51;;;;;;;2.10;1.08;;;;;;;;;;4801703;29;20167;-76
2024/01/02 14:48:24;;;;;;;2.67;1.40;;;;;;;;;;4801326;29;20128;-72